Time;durP1;ratioP1;P1;durP2;ratioP2;P2;SDS_P1;SDS_P2;PMS_P1;PMS_P2;Temp;Humidity;BMP_temperature;BMP_pressure;BME280_temperature;BME280_humidity;BME280_pressure;Samples;Min_cycle;Max_cycle;Signal;HPM_P1;HPM_P2
2023/10/27 00:01:32;;;;;;;50.78;38.88;;;9.60;99.90;;;;;;5023962;28;20309;-81
2023/10/27 00:03:57;;;;;;;55.25;40.10;;;9.60;99.90;;;;;;5015652;28;20041;-80
2023/10/27 00:06:23;;;;;;;51.60;39.65;;;9.60;99.90;;;;;;5041781;28;20049;-73
2023/10/27 00:08:49;;;;;;;52.70;40.53;;;9.60;99.90;;;;;;5003389;28;20053;-73
2023/10/27 00:11:15;;;;;;;51.25;39.80;;;9.60;99.90;;;;;;5024811;28;20033;-73
2023/10/27 00:13:40;;;;;;;58.88;41.50;;;9.60;99.90;;;;;;5019074;28;20081;-73
2023/10/27 00:16:10;;;;;;;52.92;39.10;;;9.50;99.90;;;;;;5024726;28;20041;-73
2023/10/27 00:18:37;;;;;;;56.50;40.20;;;9.60;99.90;;;;;;5019610;28;20049;-73
2023/10/27 00:21:04;;;;;;;54.42;39.78;;;9.50;99.90;;;;;;5008569;28;20688;-73
2023/10/27 00:23:31;;;;;;;57.75;41.47;;;9.50;99.90;;;;;;5020681;28;20038;-73
2023/10/27 00:25:57;;;;;;;62.20;41.92;;;9.50;99.90;;;;;;5024872;28;20059;-72
2023/10/27 00:28:23;;;;;;;57.92;40.63;;;9.50;99.90;;;;;;4996270;28;20432;-73
2023/10/27 00:30:49;;;;;;;55.05;39.10;;;9.50;99.90;;;;;;5004831;28;20150;-73
2023/10/27 00:33:14;;;;;;;53.38;40.60;;;9.50;99.90;;;;;;5004895;28;20048;-73
2023/10/27 00:35:40;;;;;;;55.03;39.42;;;9.50;99.90;;;;;;5015594;28;20373;-74
2023/10/27 00:38:06;;;;;;;57.28;41.28;;;9.50;99.90;;;;;;5013264;28;20578;-73
2023/10/27 00:40:32;;;;;;;61.13;42.25;;;9.50;99.90;;;;;;5026451;28;20054;-73
2023/10/27 00:42:58;;;;;;;57.10;40.28;;;9.50;99.90;;;;;;5005951;28;20041;-73
2023/10/27 00:45:25;;;;;;;54.90;40.22;;;9.50;99.90;;;;;;5017111;28;20041;-73
2023/10/27 00:47:50;;;;;;;53.25;38.80;;;9.50;99.90;;;;;;5007167;28;20203;-73
2023/10/27 00:50:17;;;;;;;57.00;40.55;;;9.50;99.90;;;;;;5025629;28;20124;-73
2023/10/27 00:52:42;;;;;;;59.70;40.88;;;9.50;99.90;;;;;;5022895;28;20142;-73
2023/10/27 00:55:08;;;;;;;51.75;39.40;;;9.50;99.90;;;;;;5019868;28;20077;-73
2023/10/27 00:57:36;;;;;;;50.25;37.97;;;9.60;99.90;;;;;;5020782;28;20049;-73
2023/10/27 01:00:04;;;;;;;51.60;37.72;;;9.60;99.90;;;;;;5020792;28;20045;-73
2023/10/27 01:02:30;;;;;;;49.67;36.00;;;9.60;99.90;;;;;;5019574;28;20318;-73
2023/10/27 01:04:56;;;;;;;52.92;37.13;;;9.60;99.90;;;;;;5022131;28;20045;-73
2023/10/27 01:07:23;;;;;;;46.25;35.70;;;9.60;99.90;;;;;;5019619;28;20515;-74
2023/10/27 01:09:49;;;;;;;48.55;34.83;;;9.60;99.90;;;;;;5020729;28;20989;-73
2023/10/27 01:12:15;;;;;;;48.50;36.15;;;9.60;99.90;;;;;;5004746;28;20403;-73
2023/10/27 01:14:41;;;;;;;48.10;35.55;;;9.50;99.90;;;;;;5020585;28;20045;-80
2023/10/27 01:17:07;;;;;;;47.67;35.35;;;9.60;99.90;;;;;;5008142;28;20051;-80
2023/10/27 01:19:35;;;;;;;49.70;35.67;;;9.60;99.90;;;;;;5016119;28;20072;-81
2023/10/27 01:22:02;;;;;;;49.47;34.53;;;9.60;99.90;;;;;;5017962;28;20514;-80
2023/10/27 01:24:28;;;;;;;48.13;34.25;;;9.60;99.90;;;;;;5002169;28;20052;-81
2023/10/27 01:26:56;;;;;;;46.05;34.03;;;9.60;99.90;;;;;;5018274;28;20057;-81
2023/10/27 01:29:24;;;;;;;41.78;31.15;;;9.60;99.90;;;;;;5004621;28;20138;-73
2023/10/27 01:31:52;;;;;;;42.90;32.80;;;9.60;99.90;;;;;;5005165;28;20041;-73
2023/10/27 01:34:19;;;;;;;41.67;31.13;;;9.60;99.90;;;;;;5020470;28;20485;-74
2023/10/27 01:36:45;;;;;;;42.85;31.58;;;9.60;99.90;;;;;;5020120;28;20704;-73
2023/10/27 01:39:12;;;;;;;46.03;32.83;;;9.60;99.90;;;;;;5017249;28;20042;-73
2023/10/27 01:41:38;;;;;;;41.70;30.20;;;9.60;99.90;;;;;;5020442;28;20569;-73
2023/10/27 01:44:04;;;;;;;40.38;30.00;;;9.60;99.90;;;;;;5018227;28;20049;-73
2023/10/27 01:46:29;;;;;;;41.92;30.35;;;9.60;99.90;;;;;;5023038;28;20049;-73
2023/10/27 01:48:55;;;;;;;42.40;31.48;;;9.60;99.90;;;;;;5014049;28;20041;-73
2023/10/27 01:51:21;;;;;;;42.67;31.27;;;9.60;99.90;;;;;;5016228;28;20040;-73
2023/10/27 01:53:47;;;;;;;41.42;29.48;;;9.60;99.90;;;;;;5004276;28;20083;-73
2023/10/27 01:56:13;;;;;;;42.00;29.58;;;9.70;99.90;;;;;;5007376;28;20677;-73
2023/10/27 01:58:44;;;;;;;38.50;28.48;;;9.60;99.90;;;;;;5019270;28;20183;-73
2023/10/27 02:01:10;;;;;;;45.45;31.40;;;9.60;99.90;;;;;;5017703;28;20503;-73
2023/10/27 02:03:35;;;;;;;40.63;29.38;;;9.60;99.90;;;;;;5001742;28;20046;-73
2023/10/27 02:06:02;;;;;;;37.17;27.83;;;9.60;99.90;;;;;;5009762;28;20042;-73
2023/10/27 02:08:28;;;;;;;39.95;29.30;;;9.60;99.90;;;;;;5023109;28;20493;-73
2023/10/27 02:10:54;;;;;;;43.28;29.52;;;9.60;99.90;;;;;;5000982;28;20053;-73
2023/10/27 02:13:20;;;;;;;41.22;28.77;;;9.60;99.90;;;;;;5025121;28;20045;-73
2023/10/27 02:15:45;;;;;;;37.80;27.00;;;9.70;99.90;;;;;;5009767;28;20044;-74
2023/10/27 02:18:11;;;;;;;39.55;28.92;;;9.60;99.90;;;;;;4995618;28;20119;-74
2023/10/27 02:20:37;;;;;;;38.38;26.55;;;9.70;99.90;;;;;;5008278;28;20051;-74
2023/10/27 02:23:03;;;;;;;36.60;26.90;;;9.60;99.90;;;;;;5003178;28;20045;-74
2023/10/27 02:25:29;;;;;;;37.25;28.25;;;9.70;99.90;;;;;;5017356;28;20041;-74
2023/10/27 02:27:55;;;;;;;35.58;27.08;;;9.60;99.90;;;;;;5024953;28;20042;-81
2023/10/27 02:30:20;;;;;;;34.95;27.08;;;9.60;99.90;;;;;;5012314;28;20685;-82
2023/10/27 02:32:46;;;;;;;34.67;24.98;;;9.70;99.90;;;;;;5022330;28;20057;-74
2023/10/27 02:35:12;;;;;;;35.65;25.60;;;9.60;99.90;;;;;;5016681;28;20110;-73
2023/10/27 02:37:37;;;;;;;34.20;26.33;;;9.60;99.90;;;;;;5015060;28;20151;-73
2023/10/27 02:40:04;;;;;;;34.55;25.15;;;9.60;99.90;;;;;;5020223;28;20061;-73
2023/10/27 02:42:30;;;;;;;32.53;23.90;;;9.60;99.90;;;;;;4999260;28;20041;-74
2023/10/27 02:44:55;;;;;;;35.78;25.30;;;9.60;99.90;;;;;;5010183;28;20071;-74
2023/10/27 02:47:21;;;;;;;30.48;23.80;;;9.60;99.90;;;;;;5003503;28;20049;-73
2023/10/27 02:49:47;;;;;;;34.53;25.30;;;9.60;99.90;;;;;;5007762;28;20060;-73
2023/10/27 02:52:13;;;;;;;31.67;24.67;;;9.60;99.90;;;;;;5016965;28;20061;-74
2023/10/27 02:54:38;;;;;;;33.35;25.08;;;9.60;99.90;;;;;;5026845;28;20136;-82
2023/10/27 02:57:04;;;;;;;32.38;24.30;;;9.60;99.90;;;;;;5018325;28;20137;-81
2023/10/27 02:59:30;;;;;;;32.80;24.17;;;9.60;99.90;;;;;;5010615;28;20036;-81
2023/10/27 03:01:56;;;;;;;35.08;25.48;;;9.60;99.90;;;;;;5033032;28;20073;-81
2023/10/27 03:04:22;;;;;;;33.60;24.23;;;9.60;99.90;;;;;;5026595;28;20050;-82
2023/10/27 03:06:47;;;;;;;31.77;23.35;;;9.60;99.90;;;;;;5002119;28;20164;-81
2023/10/27 03:09:13;;;;;;;36.65;24.67;;;9.60;99.90;;;;;;5018994;28;21379;-82
2023/10/27 03:11:39;;;;;;;33.88;25.23;;;9.60;99.90;;;;;;5022019;28;20630;-82
2023/10/27 03:14:05;;;;;;;33.08;24.27;;;9.60;99.90;;;;;;5008278;28;20251;-81
2023/10/27 03:16:32;;;;;;;33.25;24.83;;;9.60;99.90;;;;;;5021967;28;20531;-82
2023/10/27 03:18:58;;;;;;;34.45;24.95;;;9.60;99.90;;;;;;5015082;28;20088;-74
2023/10/27 03:21:24;;;;;;;35.45;25.48;;;9.60;99.90;;;;;;5014060;28;20130;-74
2023/10/27 03:23:49;;;;;;;32.60;24.90;;;9.60;99.90;;;;;;5022616;28;20050;-73
2023/10/27 03:26:15;;;;;;;36.20;26.23;;;9.70;99.90;;;;;;5019975;28;20037;-74
2023/10/27 03:28:41;;;;;;;35.95;24.85;;;9.60;99.90;;;;;;5012618;28;20037;-74
2023/10/27 03:31:08;;;;;;;34.25;24.27;;;9.60;99.90;;;;;;5027147;28;20056;-74
2023/10/27 03:33:34;;;;;;;35.90;26.23;;;9.60;99.90;;;;;;5038530;28;20323;-73
2023/10/27 03:35:59;;;;;;;36.42;26.60;;;9.60;99.90;;;;;;5002321;28;20049;-72
2023/10/27 03:38:25;;;;;;;36.08;25.65;;;9.70;99.90;;;;;;5022615;28;20095;-72
2023/10/27 03:40:53;;;;;;;37.42;26.13;;;9.60;99.90;;;;;;5024042;28;20125;-73
2023/10/27 03:43:19;;;;;;;37.25;25.88;;;9.70;99.90;;;;;;5011894;28;20046;-73
2023/10/27 03:45:45;;;;;;;35.75;25.55;;;9.60;99.90;;;;;;5017825;28;20060;-72
2023/10/27 03:48:11;;;;;;;34.58;24.92;;;9.60;99.90;;;;;;5015265;28;20029;-73
2023/10/27 03:50:37;;;;;;;37.17;26.30;;;9.60;99.90;;;;;;5011799;28;20050;-73
2023/10/27 03:53:03;;;;;;;37.35;26.58;;;9.70;99.90;;;;;;5008972;28;20041;-73
2023/10/27 03:55:29;;;;;;;33.88;24.50;;;9.60;99.90;;;;;;5006732;28;20048;-73
2023/10/27 03:57:55;;;;;;;35.03;24.75;;;9.60;99.90;;;;;;5022193;28;20407;-73
2023/10/27 04:00:21;;;;;;;37.00;27.05;;;9.60;99.90;;;;;;5018772;28;20044;-73
2023/10/27 04:02:47;;;;;;;34.40;25.63;;;9.60;99.90;;;;;;5012149;28;20046;-73
2023/10/27 04:05:13;;;;;;;36.97;25.92;;;9.60;99.90;;;;;;5016548;28;20045;-73
2023/10/27 04:07:38;;;;;;;36.58;25.25;;;9.60;99.90;;;;;;5011426;28;20407;-73
2023/10/27 04:10:04;;;;;;;37.20;24.75;;;9.60;99.90;;;;;;5007172;28;20056;-73
2023/10/27 04:12:30;;;;;;;35.90;25.67;;;9.60;99.90;;;;;;5014367;28;20108;-73
2023/10/27 04:14:56;;;;;;;36.42;24.67;;;9.60;99.90;;;;;;5015296;28;20485;-73
2023/10/27 04:17:22;;;;;;;35.03;24.88;;;9.60;99.90;;;;;;5030577;28;20126;-73
2023/10/27 04:19:47;;;;;;;36.75;23.83;;;9.60;99.90;;;;;;5018897;28;20073;-73
2023/10/27 04:22:14;;;;;;;33.92;24.10;;;9.60;99.90;;;;;;5017771;28;20042;-73
2023/10/27 04:24:40;;;;;;;35.45;25.50;;;9.60;99.90;;;;;;5007422;28;20053;-73
2023/10/27 04:27:06;;;;;;;37.22;24.92;;;9.60;99.90;;;;;;5017265;28;20048;-73
2023/10/27 04:29:31;;;;;;;34.05;25.15;;;9.60;99.90;;;;;;5008072;28;20033;-73
2023/10/27 04:31:57;;;;;;;34.88;23.55;;;9.60;99.90;;;;;;5021783;28;20091;-73
2023/10/27 04:34:23;;;;;;;36.47;25.40;;;9.60;99.90;;;;;;5021294;28;20107;-73
2023/10/27 04:36:49;;;;;;;33.35;23.08;;;9.60;99.90;;;;;;5007276;28;20063;-73
2023/10/27 04:39:15;;;;;;;35.92;23.70;;;9.60;99.90;;;;;;5024200;28;20053;-73
2023/10/27 04:41:40;;;;;;;34.97;23.48;;;9.60;99.90;;;;;;5017389;28;20132;-73
2023/10/27 04:44:06;;;;;;;34.85;24.15;;;9.60;99.90;;;;;;5023685;28;20541;-73
2023/10/27 04:46:32;;;;;;;35.25;23.85;;;9.60;99.90;;;;;;5022431;28;20465;-73
2023/10/27 04:48:58;;;;;;;36.00;23.02;;;9.60;99.90;;;;;;5022690;28;20055;-73
2023/10/27 04:51:26;;;;;;;35.55;22.90;;;9.60;99.90;;;;;;5004651;28;20473;-73
2023/10/27 04:53:52;;;;;;;33.20;22.63;;;9.60;99.90;;;;;;5018122;28;20049;-73
2023/10/27 04:56:18;;;;;;;35.15;23.05;;;9.50;99.90;;;;;;5017685;28;20042;-80
2023/10/27 04:58:44;;;;;;;33.53;23.33;;;9.50;99.90;;;;;;5023120;28;20057;-81
2023/10/27 05:01:11;;;;;;;34.22;24.05;;;9.50;99.90;;;;;;5010904;28;20045;-80
2023/10/27 05:03:37;;;;;;;30.85;22.45;;;9.50;99.90;;;;;;5016598;28;20366;-82
2023/10/27 05:06:10;;;;;;;30.27;21.85;;;9.50;99.90;;;;;;5018961;28;20068;-81
2023/10/27 05:08:36;;;;;;;31.60;21.83;;;9.50;99.90;;;;;;5019151;28;20526;-81
2023/10/27 05:11:01;;;;;;;42.28;22.90;;;9.50;99.90;;;;;;5018480;28;20045;-81
2023/10/27 05:13:27;;;;;;;31.38;22.40;;;9.50;99.90;;;;;;5018640;28;20045;-81
2023/10/27 05:15:54;;;;;;;28.73;20.58;;;9.50;99.90;;;;;;5015966;28;20046;-80
2023/10/27 05:18:20;;;;;;;29.88;21.20;;;9.50;99.90;;;;;;5004637;28;20044;-81
2023/10/27 05:20:48;;;;;;;31.92;21.02;;;9.50;99.90;;;;;;5019538;28;20060;-80
2023/10/27 05:23:13;;;;;;;30.17;21.00;;;9.50;99.90;;;;;;5022746;28;20113;-81
2023/10/27 05:25:40;;;;;;;32.45;21.73;;;9.40;99.90;;;;;;5021506;28;20129;-81
2023/10/27 05:28:07;;;;;;;30.73;21.83;;;9.40;99.90;;;;;;5014310;28;20080;-81
2023/10/27 05:30:37;;;;;;;30.35;20.65;;;9.40;99.90;;;;;;5003458;28;20262;-81
2023/10/27 05:33:03;;;;;;;31.85;22.35;;;9.40;99.90;;;;;;5020126;28;20084;-81
2023/10/27 05:35:34;;;;;;;31.95;20.55;;;9.40;99.90;;;;;;5005426;28;20050;-81
2023/10/27 05:38:00;;;;;;;28.58;19.95;;;9.40;99.90;;;;;;5018653;28;20038;-81
2023/10/27 05:40:31;;;;;;;26.02;18.48;;;9.40;99.90;;;;;;5021779;28;20042;-81
2023/10/27 05:42:57;;;;;;;31.92;22.02;;;9.40;99.90;;;;;;5016519;28;20052;-81
2023/10/27 05:45:23;;;;;;;30.20;20.90;;;9.40;99.90;;;;;;5020832;28;20408;-81
2023/10/27 05:47:49;;;;;;;28.48;20.95;;;9.30;99.90;;;;;;5004151;28;20041;-80
2023/10/27 05:50:15;;;;;;;28.63;20.60;;;9.30;99.90;;;;;;5005719;28;20040;-82
2023/10/27 05:52:40;;;;;;;30.35;21.70;;;9.30;99.90;;;;;;5017482;28;20041;-81
2023/10/27 05:55:07;;;;;;;27.70;20.08;;;9.30;99.90;;;;;;5023194;28;20492;-81
2023/10/27 05:57:32;;;;;;;26.83;19.38;;;9.30;99.90;;;;;;5004337;28;20050;-82
2023/10/27 05:59:58;;;;;;;31.08;20.90;;;9.30;99.90;;;;;;5019297;28;20117;-82
2023/10/27 06:02:24;;;;;;;29.00;21.33;;;9.30;99.90;;;;;;5005017;28;20500;-81
2023/10/27 06:04:50;;;;;;;30.35;20.92;;;9.30;99.90;;;;;;5036986;28;20179;-81
2023/10/27 06:07:17;;;;;;;29.70;20.80;;;9.30;99.90;;;;;;5017521;28;20037;-80
2023/10/27 06:09:43;;;;;;;30.15;21.55;;;9.20;99.90;;;;;;5015994;28;21100;-82
2023/10/27 06:12:09;;;;;;;30.92;22.23;;;9.20;99.90;;;;;;5020135;28;20052;-81
2023/10/27 06:14:35;;;;;;;30.48;19.58;;;9.20;99.90;;;;;;5025527;28;20045;-81
2023/10/27 06:17:01;;;;;;;29.27;21.05;;;9.20;99.90;;;;;;5021988;28;20516;-81
2023/10/27 06:19:27;;;;;;;32.58;21.85;;;9.20;99.90;;;;;;5025374;28;20049;-80
2023/10/27 06:22:00;;;;;;;29.60;20.77;;;9.20;99.90;;;;;;5026076;28;20049;-80
2023/10/27 06:24:26;;;;;;;32.67;22.08;;;9.10;99.90;;;;;;5025042;28;20088;-81
2023/10/27 06:26:51;;;;;;;31.92;22.65;;;9.20;99.90;;;;;;5021813;28;20112;-80
2023/10/27 06:29:22;;;;;;;32.15;22.42;;;9.10;99.90;;;;;;5011175;28;20551;-80
2023/10/27 06:31:47;;;;;;;38.97;23.42;;;9.10;99.90;;;;;;5006730;28;20042;-81
2023/10/27 06:34:13;;;;;;;32.15;22.48;;;9.10;99.90;;;;;;5019980;28;20396;-81
2023/10/27 06:36:39;;;;;;;35.35;23.45;;;9.10;99.90;;;;;;5024436;28;20041;-80
2023/10/27 06:39:07;;;;;;;33.15;23.30;;;9.10;99.90;;;;;;5010062;28;20049;-80
2023/10/27 06:41:37;;;;;;;32.08;22.83;;;9.10;99.90;;;;;;5022658;28;20041;-81
2023/10/27 06:44:04;;;;;;;34.78;22.27;;;9.10;99.90;;;;;;5025934;28;20127;-81
2023/10/27 06:46:31;;;;;;;33.38;22.25;;;9.10;99.90;;;;;;5027068;28;20099;-81
2023/10/27 06:48:57;;;;;;;32.08;22.00;;;9.00;99.90;;;;;;5010044;28;20045;-80
2023/10/27 06:51:22;;;;;;;34.10;22.70;;;9.10;99.90;;;;;;5012750;28;20484;-81
2023/10/27 06:53:48;;;;;;;32.85;23.02;;;9.10;99.90;;;;;;5023845;28;20506;-81
2023/10/27 06:56:14;;;;;;;35.50;23.45;;;9.10;99.90;;;;;;5025198;28;20068;-81
2023/10/27 06:58:40;;;;;;;36.08;23.27;;;9.10;99.90;;;;;;5026403;28;20377;-81
2023/10/27 07:01:07;;;;;;;35.55;23.27;;;9.10;99.90;;;;;;5007184;28;20405;-82
2023/10/27 07:03:34;;;;;;;35.35;23.15;;;9.10;99.90;;;;;;5024186;28;20042;-81
2023/10/27 07:05:59;;;;;;;33.13;22.92;;;9.10;99.90;;;;;;5018804;28;20096;-81
2023/10/27 07:08:25;;;;;;;33.70;23.42;;;9.10;99.90;;;;;;5024031;28;20065;-81
2023/10/27 07:10:57;;;;;;;32.58;22.50;;;9.20;99.90;;;;;;5008456;28;20136;-81
2023/10/27 07:13:27;;;;;;;31.48;22.15;;;9.20;99.90;;;;;;5027980;28;20699;-81
2023/10/27 07:15:53;;;;;;;35.93;22.63;;;9.20;99.90;;;;;;5003082;28;20065;-74
2023/10/27 07:18:19;;;;;;;33.47;22.70;;;9.20;99.90;;;;;;5013300;28;20080;-74
2023/10/27 07:20:46;;;;;;;34.72;22.85;;;9.20;99.90;;;;;;5005209;28;20120;-74
2023/10/27 07:23:12;;;;;;;29.80;20.45;;;9.20;99.90;;;;;;5027604;28;20084;-74
2023/10/27 07:25:38;;;;;;;30.80;21.25;;;9.30;99.90;;;;;;5021335;28;20073;-74
2023/10/27 07:28:04;;;;;;;32.65;22.83;;;9.20;99.90;;;;;;4996388;28;20076;-74
2023/10/27 07:30:30;;;;;;;30.75;21.23;;;9.30;99.90;;;;;;5024597;28;20044;-74
2023/10/27 07:32:57;;;;;;;38.53;22.13;;;9.30;99.90;;;;;;5019975;28;20073;-75
2023/10/27 07:35:23;;;;;;;30.30;20.75;;;9.30;99.90;;;;;;5020860;28;20030;-73
2023/10/27 07:37:49;;;;;;;33.60;22.35;;;9.30;99.90;;;;;;5008511;28;20128;-73
2023/10/27 07:40:17;;;;;;;33.00;22.92;;;9.30;99.90;;;;;;5008428;28;20128;-73
2023/10/27 07:42:43;;;;;;;33.28;22.40;;;9.30;99.90;;;;;;5022949;28;20457;-73
2023/10/27 07:45:09;;;;;;;32.65;22.23;;;9.40;99.90;;;;;;5018545;28;20056;-81
2023/10/27 07:47:35;;;;;;;31.33;22.60;;;9.40;99.90;;;;;;5020337;28;20080;-81
2023/10/27 07:50:01;;;;;;;32.17;21.92;;;9.30;99.90;;;;;;5005456;28;20557;-81
2023/10/27 07:52:27;;;;;;;35.35;23.52;;;9.40;99.90;;;;;;5005051;28;20524;-82
2023/10/27 07:54:53;;;;;;;32.67;21.85;;;9.40;99.90;;;;;;5008608;28;20405;-80
2023/10/27 07:57:21;;;;;;;32.55;22.05;;;9.40;99.90;;;;;;5019713;28;20504;-81
2023/10/27 07:59:47;;;;;;;32.22;22.00;;;9.40;99.90;;;;;;5024376;28;20044;-73
2023/10/27 08:02:12;;;;;;;33.67;23.00;;;9.40;99.90;;;;;;5014368;28;20057;-73
2023/10/27 08:04:38;;;;;;;32.88;22.35;;;9.40;99.90;;;;;;5030980;28;20131;-73
2023/10/27 08:07:05;;;;;;;32.40;22.10;;;9.40;99.90;;;;;;5022886;28;20495;-73
2023/10/27 08:09:31;;;;;;;31.88;21.83;;;9.40;99.90;;;;;;5016256;28;20033;-73
2023/10/27 08:11:57;;;;;;;27.95;20.50;;;9.40;99.90;;;;;;5007563;28;20127;-73
2023/10/27 08:14:23;;;;;;;30.85;21.88;;;9.40;99.90;;;;;;5013367;28;20515;-73
2023/10/27 08:16:49;;;;;;;31.20;21.95;;;9.50;99.90;;;;;;5025771;28;20038;-73
2023/10/27 08:19:15;;;;;;;33.90;23.02;;;9.50;99.90;;;;;;5001942;28;20396;-72
2023/10/27 08:21:41;;;;;;;33.25;22.40;;;9.50;99.90;;;;;;5021482;28;20463;-73
2023/10/27 08:24:07;;;;;;;32.97;22.05;;;9.50;99.90;;;;;;5006551;28;20041;-74
2023/10/27 08:26:33;;;;;;;32.20;22.80;;;9.50;99.90;;;;;;5018985;28;20056;-73
2023/10/27 08:28:59;;;;;;;29.83;20.90;;;9.50;99.90;;;;;;5022789;28;20506;-74
2023/10/27 08:31:25;;;;;;;30.63;21.48;;;9.60;99.90;;;;;;5005439;28;20049;-74
2023/10/27 08:33:51;;;;;;;29.98;21.30;;;9.60;99.90;;;;;;5003790;28;20403;-74
2023/10/27 08:36:17;;;;;;;29.67;22.02;;;9.60;99.90;;;;;;5004607;28;20095;-73
2023/10/27 08:38:45;;;;;;;28.70;20.60;;;9.60;99.90;;;;;;5023670;28;20516;-73
2023/10/27 08:41:13;;;;;;;29.30;21.27;;;9.60;99.90;;;;;;5018464;28;20072;-74
2023/10/27 08:43:39;;;;;;;30.30;22.38;;;9.60;99.90;;;;;;5023960;28;20045;-82
2023/10/27 08:46:07;;;;;;;27.83;21.33;;;9.60;99.90;;;;;;5002013;28;20049;-74
2023/10/27 08:48:36;;;;;;;30.48;21.80;;;9.70;99.90;;;;;;5001142;28;20038;-74
2023/10/27 08:51:06;;;;;;;28.65;21.00;;;9.70;99.90;;;;;;5019417;28;20522;-74
2023/10/27 08:53:32;;;;;;;27.45;20.70;;;9.70;99.90;;;;;;5020719;28;20042;-74
2023/10/27 08:56:01;;;;;;;29.42;20.25;;;9.70;99.90;;;;;;5021920;28;20052;-73
2023/10/27 08:58:26;;;;;;;29.35;20.75;;;9.70;99.90;;;;;;5019844;28;20050;-73
2023/10/27 09:00:52;;;;;;;30.05;21.33;;;9.80;99.90;;;;;;5018090;28;20092;-73
2023/10/27 09:03:19;;;;;;;32.28;22.42;;;9.70;99.90;;;;;;5020318;28;20049;-72
2023/10/27 09:05:45;;;;;;;29.70;22.13;;;9.80;99.90;;;;;;5005572;28;20095;-73
2023/10/27 09:08:11;;;;;;;32.30;22.80;;;9.80;99.90;;;;;;5015866;28;20472;-73
2023/10/27 09:10:38;;;;;;;28.13;20.50;;;9.80;99.90;;;;;;5018729;28;20116;-72
2023/10/27 09:13:08;;;;;;;27.52;21.45;;;9.80;99.90;;;;;;5016182;28;20037;-73
2023/10/27 09:15:40;;;;;;;;;;;9.80;99.90;;;;;;5007122;28;20053;-73
2023/10/27 09:18:06;;;;;;;29.00;20.15;;;9.80;99.90;;;;;;5019228;28;20563;-73
2023/10/27 09:20:51;;;;;;;30.65;21.63;;;9.80;99.90;;;;;;5003119;28;20045;-73
2023/10/27 09:23:18;;;;;;;29.67;21.00;;;9.90;99.90;;;;;;5000974;28;20385;-73
2023/10/27 09:25:44;;;;;;;32.22;22.42;;;9.80;99.90;;;;;;5001999;28;20059;-73
2023/10/27 09:28:11;;;;;;;29.20;20.98;;;9.90;99.90;;;;;;5006700;28;20040;-73
2023/10/27 09:30:41;;;;;;;28.70;20.42;;;9.90;99.90;;;;;;5021612;28;20076;-73
2023/10/27 09:33:16;;;;;;;29.45;21.35;;;9.90;99.90;;;;;;5016102;28;20500;-73
2023/10/27 09:35:43;;;;;;;28.85;20.65;;;9.90;99.90;;;;;;5020956;28;20041;-73
2023/10/27 09:38:09;;;;;;;30.83;22.42;;;9.90;99.90;;;;;;5003574;28;20047;-73
2023/10/27 09:40:37;;;;;;;28.17;21.35;;;10.00;99.90;;;;;;5022748;28;20053;-73
2023/10/27 09:43:06;;;;;;;28.90;21.13;;;10.00;99.90;;;;;;5002319;28;20038;-73
2023/10/27 09:45:36;;;;;;;30.80;22.35;;;10.00;99.90;;;;;;5017431;28;20045;-72
2023/10/27 09:48:03;;;;;;;29.60;21.90;;;10.10;99.90;;;;;;5016566;28;20037;-73
2023/10/27 09:50:31;;;;;;;29.42;20.90;;;10.00;99.90;;;;;;5020455;28;20069;-73
2023/10/27 09:52:59;;;;;;;28.42;21.75;;;10.00;99.90;;;;;;5015339;28;20543;-73
2023/10/27 09:55:27;;;;;;;29.10;21.80;;;10.10;99.90;;;;;;4998884;28;20132;-72
2023/10/27 09:57:53;;;;;;;30.00;21.85;;;10.10;99.90;;;;;;5003557;28;20042;-72
2023/10/27 10:00:22;;;;;;;29.50;22.20;;;10.10;99.90;;;;;;5008133;28;20500;-72
2023/10/27 10:02:48;;;;;;;28.75;21.13;;;10.10;99.90;;;;;;5017834;28;20073;-72
2023/10/27 10:05:14;;;;;;;29.30;21.30;;;10.10;99.90;;;;;;5021460;28;20375;-72
2023/10/27 10:07:51;;;;;;;28.38;21.25;;;10.20;99.90;;;;;;5005464;28;20084;-72
2023/10/27 10:10:33;;;;;;;27.80;21.50;;;10.10;99.90;;;;;;4999035;28;20080;-72
2023/10/27 10:13:01;;;;;;;29.73;22.40;;;10.10;99.90;;;;;;5016098;28;20523;-73
2023/10/27 10:15:28;;;;;;;26.45;21.27;;;10.10;99.90;;;;;;5001513;28;21228;-73
2023/10/27 10:17:55;;;;;;;28.65;21.55;;;10.10;99.90;;;;;;5006575;28;20049;-73
2023/10/27 10:20:49;;;;;;;28.35;22.17;;;10.20;99.90;;;;;;5000996;28;20103;-73
2023/10/27 10:23:16;;;;;;;29.20;22.25;;;10.20;99.90;;;;;;5008041;28;20408;-73
2023/10/27 10:26:08;;;;;;;26.63;21.45;;;10.20;99.90;;;;;;5021250;28;20045;-73
2023/10/27 10:28:34;;;;;;;30.23;21.75;;;10.20;99.90;;;;;;5013219;28;20068;-73
2023/10/27 10:31:19;;;;;;;27.88;20.85;;;10.20;99.90;;;;;;5022962;28;20052;-73
2023/10/27 10:33:46;;;;;;;27.90;20.83;;;10.20;99.90;;;;;;5001417;28;20057;-73
2023/10/27 10:36:14;;;;;;;29.20;22.88;;;10.20;99.90;;;;;;5020747;28;20056;-73
2023/10/27 10:38:44;;;;;;;29.60;21.92;;;10.20;99.90;;;;;;5019655;28;20061;-74
2023/10/27 10:41:15;;;;;;;28.65;21.67;;;10.20;99.90;;;;;;5002333;28;20553;-74
2023/10/27 10:43:41;;;;;;;30.05;22.27;;;10.20;99.90;;;;;;5006775;28;20076;-74
2023/10/27 10:46:12;;;;;;;28.05;21.98;;;10.20;99.90;;;;;;5020240;28;20081;-74
2023/10/27 10:48:42;;;;;;;32.03;23.40;;;10.20;99.90;;;;;;5018506;28;20046;-74
2023/10/27 10:51:25;;;;;;;31.13;22.90;;;10.20;99.90;;;;;;5002945;28;20407;-74
2023/10/27 10:53:55;;;;;;;32.78;22.48;;;10.20;99.90;;;;;;4996553;28;20622;-75
2023/10/27 10:56:24;;;;;;;31.58;23.27;;;10.20;99.90;;;;;;5015392;28;20045;-74
2023/10/27 10:58:50;;;;;;;31.50;22.83;;;10.20;99.90;;;;;;5004235;28;20302;-74
2023/10/27 11:01:21;;;;;;;28.50;21.45;;;10.30;99.90;;;;;;5003713;28;20511;-74
2023/10/27 11:03:51;;;;;;;33.28;23.75;;;10.30;99.90;;;;;;5022024;28;20041;-74
2023/10/27 11:06:25;;;;;;;34.10;24.27;;;10.30;99.90;;;;;;5037550;28;20065;-74
2023/10/27 11:08:52;;;;;;;32.08;22.92;;;10.20;99.90;;;;;;5004139;28;20037;-75
2023/10/27 11:11:18;;;;;;;31.30;24.10;;;10.30;99.90;;;;;;5009352;28;20048;-84
2023/10/27 11:13:50;;;;;;;30.35;23.20;;;10.30;99.90;;;;;;5002299;28;20792;-83
2023/10/27 11:16:16;;;;;;;31.73;23.35;;;10.30;99.90;;;;;;5024862;28;20132;-83
2023/10/27 11:18:44;;;;;;;33.67;23.88;;;10.40;99.90;;;;;;5020464;28;20061;-83
2023/10/27 11:21:17;;;;;;;33.75;24.00;;;10.40;99.90;;;;;;5024710;28;20049;-84
2023/10/27 11:23:44;;;;;;;35.10;24.83;;;10.40;99.90;;;;;;5017725;28;20060;-84
2023/10/27 11:26:10;;;;;;;31.45;23.75;;;10.40;99.90;;;;;;5023379;28;20496;-85
2023/10/27 11:28:41;;;;;;;34.05;24.38;;;10.40;99.90;;;;;;5021324;28;20049;-83
2023/10/27 11:31:20;;;;;;;33.83;23.63;;;10.40;99.90;;;;;;5017122;28;20100;-83
2023/10/27 11:34:03;;;;;;;34.42;25.70;;;10.40;99.90;;;;;;5006738;28;20450;-84
2023/10/27 11:36:39;;;;;;;31.85;23.60;;;10.40;99.90;;;;;;5022128;28;20034;-84
2023/10/27 11:39:20;;;;;;;35.08;25.38;;;10.50;99.90;;;;;;5021331;28;20100;-74
2023/10/27 11:42:02;;;;;;;30.88;24.45;;;10.50;99.90;;;;;;5025491;28;20054;-75
2023/10/27 11:44:29;;;;;;;31.35;23.75;;;10.50;99.90;;;;;;5008520;28;20045;-74
2023/10/27 11:46:57;;;;;;;33.35;24.10;;;10.50;99.90;;;;;;5022234;28;20037;-74
2023/10/27 11:49:25;;;;;;;30.67;24.15;;;10.50;99.90;;;;;;5020320;28;20045;-74
2023/10/27 11:51:57;;;;;;;31.45;25.17;;;10.50;99.90;;;;;;5027116;28;20099;-74
2023/10/27 11:54:27;;;;;;;29.45;23.88;;;10.50;99.90;;;;;;5020518;28;20041;-74
2023/10/27 11:56:53;;;;;;;29.83;24.00;;;10.50;99.90;;;;;;5007757;28;20099;-74
2023/10/27 11:59:24;;;;;;;31.88;23.80;;;10.50;99.90;;;;;;5004665;28;20504;-74
2023/10/27 12:01:51;;;;;;;30.08;23.40;;;10.60;99.90;;;;;;5008847;28;20041;-75
2023/10/27 12:04:16;;;;;;;34.17;25.25;;;10.60;99.90;;;;;;5003308;28;20539;-75
2023/10/27 12:06:43;;;;;;;30.55;23.65;;;10.60;99.90;;;;;;5003058;28;20041;-74
2023/10/27 12:09:09;;;;;;;29.23;22.98;;;10.60;99.90;;;;;;5017081;28;20534;-74
2023/10/27 12:11:36;;;;;;;29.23;23.48;;;10.60;99.90;;;;;;5007661;28;20076;-73
2023/10/27 12:14:02;;;;;;;30.30;24.23;;;10.60;99.90;;;;;;5016357;28;20484;-74
2023/10/27 12:16:29;;;;;;;29.50;23.27;;;10.70;99.90;;;;;;5006471;28;20038;-74
2023/10/27 12:18:58;;;;;;;30.50;23.80;;;10.70;99.90;;;;;;5019727;28;20124;-74
2023/10/27 12:21:25;;;;;;;28.80;22.80;;;10.70;99.90;;;;;;5006981;28;20037;-74
2023/10/27 12:23:52;;;;;;;29.13;23.88;;;10.70;99.90;;;;;;5004938;28;20471;-74
2023/10/27 12:26:18;;;;;;;27.10;22.92;;;10.70;99.90;;;;;;5009103;28;20048;-74
2023/10/27 12:28:45;;;;;;;30.17;23.63;;;10.70;99.90;;;;;;5002707;28;20088;-75
2023/10/27 12:31:13;;;;;;;33.60;24.77;;;10.70;99.90;;;;;;5024440;28;20053;-75
2023/10/27 12:33:39;;;;;;;28.67;22.77;;;10.70;99.90;;;;;;5004364;28;20041;-75
2023/10/27 12:36:09;;;;;;;27.27;22.17;;;10.70;99.90;;;;;;5024491;28;20462;-75